Time;durP1;ratioP1;P1;durP2;ratioP2;P2;SDS_P1;SDS_P2;PMS_P1;PMS_P2;Temp;Humidity;BMP_temperature;BMP_pressure;BME280_temperature;BME280_humidity;BME280_pressure;Samples;Min_cycle;Max_cycle;Signal;HPM_P1;HPM_P2
2022/01/18 00:01:58;;;;;;;43.15;12.40;;;;;;;4.36;100.00;103825.59;5061825;28;20025;-74
2022/01/18 00:04:24;;;;;;;43.25;11.35;;;;;;;4.39;100.00;103824.84;5049023;28;20025;-74
2022/01/18 00:06:52;;;;;;;38.85;11.45;;;;;;;4.47;100.00;103822.66;5036283;28;20095;-74
2022/01/18 00:09:21;;;;;;;40.45;11.18;;;;;;;4.51;100.00;103827.13;5040615;28;20396;-74
2022/01/18 00:11:58;;;;;;;36.55;10.82;;;;;;;4.54;100.00;103825.59;5065858;28;20025;-74
2022/01/18 00:14:39;;;;;;;40.85;11.05;;;;;;;4.59;100.00;103816.41;5070363;28;20033;-74
2022/01/18 00:17:16;;;;;;;46.95;11.38;;;;;;;4.69;100.00;103831.47;5067926;28;20035;-74
2022/01/18 00:19:54;;;;;;;32.38;10.38;;;;;;;4.73;100.00;103827.34;5057320;28;20071;-74
2022/01/18 00:22:21;;;;;;;51.28;12.35;;;;;;;4.78;100.00;103826.75;5051956;28;20025;-74
2022/01/18 00:24:46;;;;;;;43.40;11.02;;;;;;;4.82;100.00;103832.94;5050037;28;20079;-74
2022/01/18 00:27:15;;;;;;;44.03;10.95;;;;;;;4.86;100.00;103831.38;5057910;28;20024;-73
2022/01/18 00:29:51;;;;;;;46.00;11.68;;;;;;;4.90;100.00;103829.06;5051303;28;20024;-73
2022/01/18 00:32:29;;;;;;;38.38;10.65;;;;;;;4.94;100.00;103827.50;5061606;28;20029;-74
2022/01/18 00:34:56;;;;;;;46.22;10.95;;;;;;;4.99;100.00;103826.91;5053328;28;20020;-74
2022/01/18 00:37:32;;;;;;;36.08;10.43;;;;;;;4.99;100.00;103828.59;5059185;28;20073;-74
2022/01/18 00:39:58;;;;;;;36.28;10.45;;;;;;;5.06;100.00;103838.34;5066558;28;20021;-73
2022/01/18 00:42:23;;;;;;;41.35;11.15;;;;;;;5.07;100.00;103841.00;5049476;28;20041;-73
2022/01/18 00:44:48;;;;;;;34.55;11.18;;;;;;;5.11;100.00;103844.63;5055386;28;20419;-74
2022/01/18 00:47:14;;;;;;;35.53;10.60;;;;;;;5.15;100.00;103846.50;5047774;28;20024;-74
2022/01/18 00:49:43;;;;;;;30.42;9.73;;;;;;;5.16;100.00;103856.00;5033198;28;20504;-74
2022/01/18 00:52:09;;;;;;;39.83;11.35;;;;;;;5.16;100.00;103856.00;5059511;28;20025;-74
2022/01/18 00:54:39;;;;;;;48.13;11.18;;;;;;;5.21;100.00;103857.06;5049803;28;20033;-74
2022/01/18 00:57:05;;;;;;;37.05;10.90;;;;;;;5.22;100.00;103866.56;5068019;28;20036;-74
2022/01/18 00:59:30;;;;;;;42.65;11.98;;;;;;;5.23;100.00;103865.75;5050134;28;20031;-74
2022/01/18 01:01:56;;;;;;;42.40;10.60;;;;;;;5.24;100.00;103870.09;5068686;28;20032;-74
2022/01/18 01:04:25;;;;;;;45.20;11.82;;;;;;;5.24;100.00;103858.91;5069193;28;20031;-74
2022/01/18 01:06:50;;;;;;;50.33;10.95;;;;;;;5.23;100.00;103864.88;5067596;28;20048;-74
2022/01/18 01:09:16;;;;;;;39.88;11.23;;;;;;;5.24;100.00;103864.06;5056166;28;20028;-74
2022/01/18 01:11:41;;;;;;;43.88;11.73;;;;;;;5.25;100.00;103863.25;5061340;28;20052;-75
2022/01/18 01:14:13;;;;;;;41.83;11.15;;;;;;;5.23;100.00;103855.47;5049512;28;20032;-74
2022/01/18 01:16:50;;;;;;;49.53;11.77;;;;;;;5.25;100.00;103851.28;5065135;28;20033;-74
2022/01/18 01:43:27;;;;;;;43.75;12.65;;;;;;;5.30;100.00;103839.50;5068694;28;20083;-73
2022/01/18 01:45:54;;;;;;;39.70;12.02;;;;;;;5.34;100.00;103838.84;5066259;28;20028;-73
2022/01/18 01:48:22;;;;;;;42.10;12.20;;;;;;;5.36;100.00;103839.78;5058043;28;20203;-74
2022/01/18 01:53:18;;;;;;;45.67;12.13;;;;;;;5.37;100.00;103831.25;5069269;28;20055;-74
2022/01/18 01:55:45;;;;;;;38.33;12.45;;;;;;;5.39;100.00;103834.75;5070168;28;20051;-74
2022/01/18 01:58:11;;;;;;;38.97;12.88;;;;;;;5.41;100.00;103833.16;5072893;28;20432;-74
2022/01/18 02:00:48;;;;;;;44.15;12.80;;;;;;;5.44;100.00;103840.16;5071191;28;20474;-74
2022/01/18 02:03:14;;;;;;;50.60;12.43;;;;;;;5.44;100.00;103843.59;5072420;28;20048;-75
2022/01/18 02:05:40;;;;;;;45.28;12.55;;;;;;;5.42;100.00;103840.06;5072165;28;20184;-74
2022/01/18 02:08:08;;;;;;;43.40;13.10;;;;;;;5.46;100.00;103844.53;5064013;28;20029;-74
2022/01/18 02:10:35;;;;;;;44.50;12.90;;;;;;;5.50;100.00;103853.28;5061024;28;20107;-74
2022/01/18 02:13:01;;;;;;;42.83;12.18;;;;;;;5.52;100.00;103847.41;5070051;28;20107;-74
2022/01/18 02:15:26;;;;;;;44.63;12.48;;;;;;;5.57;100.00;103851.06;5052291;28;20108;-74
2022/01/18 02:23:23;;;;;;;41.25;11.30;;;;;;;5.60;100.00;103841.69;5072230;28;20047;-74
2022/01/18 02:25:49;;;;;;;37.58;12.07;;;;;;;5.61;100.00;103840.88;5072524;28;20025;-73
2022/01/18 02:28:16;;;;;;;44.10;12.93;;;;;;;5.57;100.00;103845.03;5069801;28;20029;-74
2022/01/18 02:30:41;;;;;;;55.08;13.07;;;;;;;5.55;100.00;103844.06;5057382;28;20071;-74
2022/01/18 02:33:07;;;;;;;46.35;12.65;;;;;;;5.54;100.00;103844.88;5072055;28;20051;-74
2022/01/18 02:35:34;;;;;;;49.65;13.27;;;;;;;5.53;100.00;103845.69;5056864;28;20100;-73
2022/01/18 02:38:00;;;;;;;49.50;12.60;;;;;;;5.51;100.00;103842.19;5071456;28;20033;-73
2022/01/18 02:40:25;;;;;;;46.90;13.88;;;;;;;5.51;100.00;103843.06;5037840;28;20048;-73
2022/01/18 02:42:58;;;;;;;54.53;13.80;;;;;;;5.48;100.00;103832.63;5042502;28;20064;-74
2022/01/18 02:45:24;;;;;;;51.35;13.18;;;;;;;5.48;100.00;103842.91;5054193;28;20032;-74
2022/01/18 02:47:50;;;;;;;47.63;13.00;;;;;;;5.49;100.00;103836.06;5071432;28;20386;-74
2022/01/18 02:50:17;;;;;;;48.38;14.20;;;;;;;5.49;100.00;103831.81;5072064;28;20024;-74
2022/01/18 02:52:42;;;;;;;45.55;13.38;;;;;;;5.48;100.00;103831.75;5068906;28;20058;-74
2022/01/18 02:55:08;;;;;;;41.45;12.85;;;;;;;5.47;100.00;103838.56;5057120;28;20052;-74
2022/01/18 02:57:41;;;;;;;51.97;13.40;;;;;;;5.48;100.00;103845.47;5063118;28;20044;-74
2022/01/18 03:00:31;;;;;;;45.65;12.40;;;;;;;5.48;100.00;103836.88;5072257;28;20046;-75
2022/01/18 03:05:37;;;;;;;45.83;13.68;;;;;;;5.46;100.00;103835.91;5067373;28;20116;-74
2022/01/18 03:08:03;;;;;;;49.85;13.02;;;;;;;5.46;100.00;103829.09;5070321;28;20066;-74
2022/01/18 03:10:28;;;;;;;45.30;13.68;;;;;;;5.48;100.00;103832.63;5052984;28;20079;-75
2022/01/18 03:12:53;;;;;;;46.83;13.70;;;;;;;5.48;100.00;103834.31;5046116;28;20490;-74
2022/01/18 03:15:19;;;;;;;45.95;14.38;;;;;;;5.51;100.00;103839.63;5054532;28;20032;-74
2022/01/18 03:17:44;;;;;;;43.50;13.43;;;;;;;5.54;100.00;103839.72;5044662;28;20025;-74
2022/01/18 03:20:12;;;;;;;41.60;13.82;;;;;;;5.56;100.00;103843.25;5054490;28;20398;-74
2022/01/18 03:22:38;;;;;;;42.95;14.13;;;;;;;5.56;100.00;103845.84;5070531;28;20036;-74
2022/01/18 03:30:22;;;;;;;51.67;15.32;;;;;;;5.52;100.00;103847.41;5071366;28;20031;-74
2022/01/18 03:32:47;;;;;;;48.72;16.35;;;;;;;5.53;100.00;103856.84;5070619;28;20012;-74
2022/01/18 03:35:13;;;;;;;49.13;15.63;;;;;;;5.52;100.00;103849.97;5055272;28;20048;-74
2022/01/18 03:37:39;;;;;;;50.45;15.60;;;;;;;5.49;100.00;103849.81;5069474;28;20622;-75
2022/01/18 03:40:06;;;;;;;51.17;16.05;;;;;;;5.48;100.00;103844.59;5071129;28;20063;-74
2022/01/18 03:42:45;;;;;;;50.72;15.98;;;;;;;5.46;100.00;103851.34;5070480;28;20076;-74
2022/01/18 03:45:19;;;;;;;57.83;15.93;;;;;;;5.44;100.00;103843.59;5054328;28;20089;-74
2022/01/18 03:47:45;;;;;;;61.13;16.25;;;;;;;5.40;100.00;103845.94;5068207;28;20025;-74
2022/01/18 03:50:12;;;;;;;56.58;17.08;;;;;;;5.38;100.00;103843.31;5033412;28;20029;-74
2022/01/18 03:52:39;;;;;;;51.55;16.48;;;;;;;5.39;100.00;103849.34;5058998;28;20044;-74
2022/01/18 03:55:06;;;;;;;61.53;17.23;;;;;;;5.38;100.00;103852.72;5070409;28;20478;-74
2022/01/18 03:57:31;;;;;;;60.00;16.88;;;;;;;5.39;100.00;103851.94;5069805;28;20029;-74
2022/01/18 03:59:57;;;;;;;56.00;16.42;;;;;;;5.39;100.00;103850.19;5054018;28;20025;-74
2022/01/18 04:02:22;;;;;;;57.72;17.05;;;;;;;5.36;100.00;103860.38;5059333;28;20029;-74
2022/01/18 04:04:47;;;;;;;56.88;17.70;;;;;;;5.37;100.00;103871.53;5064184;28;20033;-74
2022/01/18 04:07:13;;;;;;;57.22;17.23;;;;;;;5.35;100.00;103868.88;5063689;28;20063;-74
2022/01/18 04:09:39;;;;;;;59.47;17.10;;;;;;;5.32;100.00;103863.59;5053924;28;20454;-74
2022/01/18 04:12:05;;;;;;;70.55;17.35;;;;;;;5.33;100.00;103865.34;5068081;28;20028;-74
2022/01/18 04:14:31;;;;;;;56.15;17.08;;;;;;;5.31;100.00;103871.25;5070381;28;20028;-74
2022/01/18 04:17:06;;;;;;;53.75;17.08;;;;;;;5.31;100.00;103884.13;5069211;28;20040;-74
2022/01/18 04:27:27;;;;;;;58.28;16.70;;;;;;;5.30;100.00;103875.50;5069737;28;20086;-74
2022/01/18 04:29:52;;;;;;;57.55;16.40;;;;;;;5.30;100.00;103878.09;5064099;28;20025;-74
2022/01/18 04:32:18;;;;;;;56.07;16.90;;;;;;;5.30;100.00;103865.22;5064005;28;20386;-74
2022/01/18 04:34:43;;;;;;;68.53;18.50;;;;;;;5.31;100.00;103868.69;5069736;28;20263;-74
2022/01/18 04:37:08;;;;;;;57.17;17.52;;;;;;;5.32;100.00;103868.72;5065067;28;20429;-74
2022/01/18 04:39:38;;;;;;;60.58;17.80;;;;;;;5.31;100.00;103872.13;5051947;28;20028;-74
2022/01/18 04:42:11;;;;;;;60.45;18.63;;;;;;;5.30;100.00;103884.91;5066617;28;20044;-74
2022/01/18 04:50:04;;;;;;;70.60;23.63;;;;;;;5.30;100.00;103870.38;5070264;28;20027;-74
2022/01/18 04:52:30;;;;;;;64.82;19.40;;;;;;;5.29;100.00;103872.88;5066010;28;20025;-74
2022/01/18 04:55:00;;;;;;;66.10;19.70;;;;;;;5.31;100.00;103869.56;5049860;28;20100;-74
2022/01/18 05:00:10;;;;;;;72.10;18.02;;;;;;;5.30;100.00;103879.78;5061258;28;20055;-74
2022/01/18 05:02:35;;;;;;;63.25;17.38;;;;;;;5.28;100.00;103884.84;5045916;28;20024;-74
2022/01/18 05:05:00;;;;;;;62.25;17.52;;;;;;;5.28;100.00;103886.53;5043414;28;20036;-74
2022/01/18 05:07:26;;;;;;;65.93;17.92;;;;;;;5.29;100.00;103896.91;5067796;28;20024;-74
2022/01/18 05:09:53;;;;;;;62.40;17.27;;;;;;;5.29;100.00;103901.16;5069228;28;20027;-74
2022/01/18 05:12:29;;;;;;;57.70;16.48;;;;;;;5.29;100.00;103903.72;5068812;28;20450;-74
2022/01/18 05:14:55;;;;;;;67.95;16.85;;;;;;;5.26;100.00;103899.31;5067911;28;20051;-74
2022/01/18 05:17:37;;;;;;;59.00;16.33;;;;;;;5.25;100.00;103902.72;5048050;28;20055;-75
2022/01/18 05:20:36;;;;;;;66.00;16.25;;;;;;;5.23;100.00;103896.63;5058212;28;20063;-74
2022/01/18 05:23:00;;;;;;;66.45;17.15;;;;;;;5.23;100.00;103901.75;5066311;28;20043;-74
2022/01/18 05:25:28;;;;;;;81.03;20.23;;;;;;;5.22;100.00;103899.09;5066426;28;20032;-74
2022/01/18 05:27:54;;;;;;;141.15;31.40;;;;;;;5.21;100.00;103900.78;5060594;28;20037;-74
2022/01/18 05:30:19;;;;;;;187.38;45.15;;;;;;;5.23;100.00;103903.44;5056999;28;20371;-74
2022/01/18 05:32:44;;;;;;;225.43;56.20;;;;;;;5.20;100.00;103893.00;5054243;28;20394;-74
2022/01/18 05:35:09;;;;;;;177.43;45.43;;;;;;;5.20;100.00;103893.00;5062826;28;20048;-74
2022/01/18 05:37:35;;;;;;;125.28;35.15;;;;;;;5.20;100.00;103893.00;5060243;28;20814;-74
2022/01/18 05:40:00;;;;;;;102.47;25.55;;;;;;;5.15;100.00;103883.38;5068784;28;20119;-74
2022/01/18 05:42:25;;;;;;;84.35;22.73;;;;;;;5.16;100.00;103889.41;5047559;28;20041;-74
2022/01/18 05:44:51;;;;;;;76.72;21.00;;;;;;;5.16;100.00;103886.84;5053341;28;20032;-74
2022/01/18 05:47:16;;;;;;;84.35;21.15;;;;;;;5.14;100.00;103881.63;5053527;28;20083;-73
2022/01/18 05:49:41;;;;;;;69.10;19.60;;;;;;;5.16;100.00;103884.28;5051646;28;20032;-74
2022/01/18 05:52:07;;;;;;;64.95;18.75;;;;;;;5.17;100.00;103883.47;5050577;28;20029;-74
2022/01/18 05:54:32;;;;;;;74.35;17.98;;;;;;;5.15;100.00;103891.09;5051529;28;20024;-74
2022/01/18 05:56:57;;;;;;;77.05;17.80;;;;;;;5.16;100.00;103886.84;5068432;28;20029;-74
2022/01/18 05:59:24;;;;;;;70.20;16.85;;;;;;;5.15;100.00;103879.94;5058797;28;20021;-74
2022/01/18 06:01:58;;;;;;;66.88;17.63;;;;;;;5.12;100.00;103878.09;5036520;28;20101;-74
2022/01/18 06:07:17;;;;;;;60.72;16.20;;;;;;;5.13;100.00;103879.84;5046452;28;20199;-74
2022/01/18 06:09:43;;;;;;;57.87;17.53;;;;;;;5.11;100.00;103881.50;5068102;28;20062;-74
2022/01/18 06:12:09;;;;;;;65.28;17.17;;;;;;;5.09;100.00;103882.22;5059156;28;20271;-74
2022/01/18 06:14:34;;;;;;;78.50;18.85;;;;;;;5.08;100.00;103891.63;5053243;28;20032;-74
2022/01/18 06:16:59;;;;;;;64.05;17.30;;;;;;;5.08;100.00;103896.75;5051917;28;20478;-74
2022/01/18 06:19:25;;;;;;;67.70;17.05;;;;;;;5.05;100.00;103898.31;5043727;28;20032;-74
2022/01/18 06:21:50;;;;;;;65.05;17.23;;;;;;;5.03;100.00;103897.34;5068202;28;20027;-74
2022/01/18 06:24:15;;;;;;;64.33;17.33;;;;;;;5.04;100.00;103901.69;5057722;28;20029;-75
2022/01/18 06:26:41;;;;;;;65.80;16.50;;;;;;;5.04;100.00;103899.13;5059519;28;20286;-73
2022/01/18 06:29:06;;;;;;;73.18;16.17;;;;;;;4.97;100.00;103887.66;5062414;28;20039;-73
2022/01/18 06:31:31;;;;;;;62.88;17.02;;;;;;;5.04;100.00;103892.28;5062069;28;20059;-73
2022/01/18 06:33:57;;;;;;;65.45;16.85;;;;;;;5.05;100.00;103896.59;5065214;28;20085;-73
2022/01/18 06:36:22;;;;;;;69.50;15.70;;;;;;;5.09;100.00;103895.97;5061957;28;20077;-73
2022/01/18 06:38:48;;;;;;;73.28;16.38;;;;;;;5.11;100.00;103894.34;5064228;28;20024;-73
2022/01/18 06:41:13;;;;;;;64.13;16.97;;;;;;;5.13;100.00;103899.53;5067193;28;20029;-74
2022/01/18 06:43:38;;;;;;;60.65;16.25;;;;;;;5.13;100.00;103886.69;5064301;28;20299;-73
2022/01/18 06:46:04;;;;;;;64.97;16.33;;;;;;;5.14;100.00;103891.03;5066707;28;20045;-74
2022/01/18 06:48:29;;;;;;;62.05;14.90;;;;;;;5.15;100.00;103890.22;5067150;28;20032;-74
2022/01/18 06:50:54;;;;;;;62.47;15.73;;;;;;;5.12;100.00;103890.94;5071725;28;20028;-74
2022/01/18 06:53:20;;;;;;;58.60;15.35;;;;;;;5.12;100.00;103890.94;5066117;28;20499;-74
2022/01/18 06:55:51;;;;;;;63.17;16.85;;;;;;;5.09;100.00;103889.94;5062461;28;20028;-74
2022/01/18 06:58:16;;;;;;;55.90;15.50;;;;;;;5.11;100.00;103889.22;5066871;28;20027;-74
2022/01/18 07:00:42;;;;;;;63.38;15.00;;;;;;;5.11;100.00;103888.31;5051966;28;20048;-74
2022/01/18 07:03:07;;;;;;;54.05;15.63;;;;;;;5.10;100.00;103891.69;5069678;28;20376;-74
2022/01/18 07:05:32;;;;;;;58.43;16.07;;;;;;;5.08;100.00;103890.72;5065564;28;20025;-74
2022/01/18 07:07:58;;;;;;;63.65;16.65;;;;;;;5.08;100.00;103906.16;5064623;28;20704;-74
2022/01/18 07:10:25;;;;;;;61.70;16.77;;;;;;;5.08;100.00;103903.59;5059975;28;20115;-74
2022/01/18 07:12:50;;;;;;;58.53;16.45;;;;;;;5.09;100.00;103906.25;5066394;28;20021;-74
2022/01/18 07:15:15;;;;;;;59.88;15.88;;;;;;;5.05;100.00;103901.75;5054856;28;20027;-73
2022/01/18 07:17:41;;;;;;;61.83;15.85;;;;;;;5.04;100.00;103909.41;5063333;28;20044;-74
2022/01/18 07:20:07;;;;;;;58.20;15.25;;;;;;;5.01;100.00;103912.69;5057336;28;20025;-77
2022/01/18 07:22:34;;;;;;;60.88;16.10;;;;;;;5.00;100.00;103916.06;5069334;28;20073;-77
2022/01/18 07:25:00;;;;;;;52.47;14.65;;;;;;;5.01;100.00;103915.25;5045758;28;20036;-77
2022/01/18 07:27:26;;;;;;;55.08;14.65;;;;;;;5.03;100.00;103926.50;5050266;28;20028;-77
2022/01/18 07:29:51;;;;;;;58.42;15.25;;;;;;;5.03;100.00;103926.50;5067270;28;20037;-77
2022/01/18 07:32:17;;;;;;;47.67;13.30;;;;;;;5.07;100.00;103930.09;5049075;28;20024;-76
2022/01/18 07:34:52;;;;;;;57.70;15.32;;;;;;;5.06;100.00;103923.19;5057256;28;20076;-77
2022/01/18 07:37:21;;;;;;;52.53;12.98;;;;;;;5.06;100.00;103929.22;5068807;28;20028;-77
2022/01/18 07:39:49;;;;;;;50.03;13.43;;;;;;;5.06;100.00;103929.22;5067542;28;20025;-77
2022/01/18 07:42:15;;;;;;;64.90;14.07;;;;;;;5.03;100.00;103923.94;5066897;28;20105;-77
2022/01/18 07:44:41;;;;;;;62.75;14.00;;;;;;;5.01;100.00;103925.56;5067277;28;20534;-78
2022/01/18 07:47:06;;;;;;;49.88;13.00;;;;;;;5.03;100.00;103933.34;5070113;28;20032;-77
2022/01/18 07:49:31;;;;;;;56.17;13.88;;;;;;;5.00;100.00;103933.19;5055440;28;20040;-77
2022/01/18 07:51:56;;;;;;;50.72;13.25;;;;;;;5.02;100.00;103932.47;5052206;28;20076;-77
2022/01/18 07:54:22;;;;;;;50.30;13.13;;;;;;;5.05;100.00;103937.72;5070508;28;20162;-74
2022/01/18 07:56:47;;;;;;;59.80;13.88;;;;;;;5.06;100.00;103938.63;5070396;28;20293;-81
2022/01/18 07:59:13;;;;;;;48.45;12.43;;;;;;;5.06;100.00;103938.63;5063292;28;20033;-81
2022/01/18 08:01:39;;;;;;;47.95;12.45;;;;;;;5.07;100.00;103930.97;5070085;28;20024;-81
2022/01/18 08:04:04;;;;;;;51.55;13.90;;;;;;;5.09;100.00;103928.50;5069472;28;20427;-81
2022/01/18 08:06:30;;;;;;;47.88;12.00;;;;;;;5.09;100.00;103931.94;5066642;28;20172;-81
2022/01/18 08:08:55;;;;;;;53.40;13.65;;;;;;;5.09;100.00;103924.22;5044124;28;20486;-81
2022/01/18 08:11:20;;;;;;;52.00;13.38;;;;;;;5.08;100.00;103927.59;5067388;28;20066;-81
2022/01/18 08:13:48;;;;;;;56.97;14.18;;;;;;;5.10;100.00;103937.97;5066092;28;20021;-81
2022/01/18 08:16:34;;;;;;;56.70;13.52;;;;;;;5.10;100.00;103938.84;5064232;28;20123;-81
2022/01/18 08:19:02;;;;;;;54.72;14.65;;;;;;;5.13;100.00;103936.41;5066265;28;20052;-81
2022/01/18 08:21:27;;;;;;;53.47;13.85;;;;;;;5.15;100.00;103939.94;5032853;28;20029;-81
2022/01/18 08:23:53;;;;;;;50.08;13.85;;;;;;;5.18;100.00;103936.66;5069032;28;20020;-81
2022/01/18 08:26:19;;;;;;;64.15;15.43;;;;;;;5.20;100.00;103934.13;5064875;28;20070;-81
2022/01/18 08:28:45;;;;;;;69.72;15.73;;;;;;;5.22;100.00;103933.41;5038418;28;20263;-73
2022/01/18 08:31:11;;;;;;;72.78;16.30;;;;;;;5.29;100.00;103934.59;5066209;28;20047;-74
2022/01/18 08:33:36;;;;;;;71.38;15.88;;;;;;;5.34;100.00;103943.41;5064475;28;20032;-73
2022/01/18 08:36:04;;;;;;;70.68;15.00;;;;;;;5.34;100.00;103939.13;5068964;28;20177;-73
2022/01/18 08:38:30;;;;;;;58.28;15.25;;;;;;;5.34;100.00;103944.28;5051748;28;20024;-73
2022/01/18 08:40:56;;;;;;;59.47;14.35;;;;;;;5.35;100.00;103934.88;5067634;28;20120;-73
2022/01/18 08:43:22;;;;;;;49.95;13.32;;;;;;;5.36;100.00;103942.66;5069102;28;20047;-73
2022/01/18 08:45:48;;;;;;;61.83;14.68;;;;;;;5.38;100.00;103932.47;5067915;28;20024;-73
2022/01/18 08:48:14;;;;;;;57.97;14.88;;;;;;;5.40;100.00;103934.28;5068985;28;20025;-74
2022/01/18 08:50:39;;;;;;;68.88;15.57;;;;;;;5.44;100.00;103923.34;5062571;28;20367;-73
2022/01/18 08:53:05;;;;;;;60.47;15.38;;;;;;;5.48;100.00;103926.94;5038552;28;20056;-73
2022/01/18 08:55:33;;;;;;;66.55;16.17;;;;;;;5.52;100.00;103927.16;5048271;28;20095;-74
2022/01/18 08:57:58;;;;;;;76.70;15.98;;;;;;;5.59;100.00;103940.31;5066203;28;20024;-74
2022/01/18 09:00:23;;;;;;;82.07;17.05;;;;;;;5.64;100.00;103933.66;5058822;28;20474;-81
2022/01/18 09:02:49;;;;;;;71.70;16.23;;;;;;;5.65;100.00;103938.91;5051738;28;20388;-82
2022/01/18 09:05:15;;;;;;;68.72;15.65;;;;;;;5.69;100.00;103938.22;5047750;28;20037;-82
2022/01/18 09:07:41;;;;;;;66.35;15.85;;;;;;;5.72;100.00;103934.91;5068559;28;20398;-81
2022/01/18 09:10:09;;;;;;;72.88;16.02;;;;;;;5.75;100.00;103942.75;5052560;28;20020;-82
2022/01/18 09:12:34;;;;;;;64.25;15.90;;;;;;;5.78;100.00;103936.06;5057030;28;20025;-82
2022/01/18 09:15:01;;;;;;;85.95;16.73;;;;;;;5.82;100.00;103930.25;5054593;28;20040;-82
2022/01/18 09:17:29;;;;;;;76.95;15.10;;;;;;;5.84;100.00;103946.66;5064743;28;20051;-81
2022/01/18 09:19:56;;;;;;;64.82;15.00;;;;;;;5.84;100.00;103950.91;5051643;28;20021;-82
2022/01/18 09:22:21;;;;;;;56.78;14.77;;;;;;;5.85;100.00;103950.97;5050625;28;20021;-82
2022/01/18 09:24:47;;;;;;;66.75;14.60;;;;;;;5.87;100.00;103945.88;5069687;28;20196;-82
2022/01/18 09:27:12;;;;;;;47.80;11.85;;;;;;;5.91;100.00;103946.16;5064970;28;20410;-82
2022/01/18 09:29:39;;;;;;;44.88;10.95;;;;;;;5.93;99.98;103953.94;5062862;28;20038;-74
2022/01/18 09:32:05;;;;;;;45.08;11.27;;;;;;;5.95;100.00;103952.31;5055975;28;20024;-74
2022/01/18 09:34:31;;;;;;;44.08;11.00;;;;;;;6.00;99.52;103949.94;5067309;28;20033;-74
2022/01/18 09:36:57;;;;;;;44.25;11.75;;;;;;;6.06;99.76;103953.69;5069304;28;20390;-74
2022/01/18 09:39:23;;;;;;;36.97;11.07;;;;;;;6.13;100.00;103952.25;5050177;28;20383;-74
2022/01/18 09:41:51;;;;;;;48.72;12.75;;;;;;;6.20;99.58;103951.72;5060399;28;20102;-74
2022/01/18 09:44:17;;;;;;;46.10;12.25;;;;;;;6.25;98.89;103958.81;5050011;28;20052;-74
2022/01/18 09:46:43;;;;;;;41.92;11.52;;;;;;;6.37;99.17;103958.47;5069099;28;20075;-74
2022/01/18 09:49:09;;;;;;;43.70;12.38;;;;;;;6.42;98.88;103956.97;5068518;28;20052;-74
2022/01/18 09:51:34;;;;;;;45.30;12.50;;;;;;;6.46;98.09;103965.72;5049910;28;20055;-74
2022/01/18 09:54:00;;;;;;;54.47;14.65;;;;;;;6.46;97.92;103969.19;5058725;28;20391;-74
2022/01/18 09:56:25;;;;;;;50.55;13.00;;;;;;;6.49;97.71;103971.00;5047292;28;20028;-74
2022/01/18 09:58:51;;;;;;;43.42;13.23;;;;;;;6.51;97.95;103964.22;5067912;28;20039;-74
2022/01/18 10:01:18;;;;;;;50.33;12.75;;;;;;;6.57;98.29;103965.38;5068219;28;20017;-74
2022/01/18 10:03:44;;;;;;;44.53;13.05;;;;;;;6.64;98.10;103969.09;5040943;28;20040;-74
2022/01/18 10:06:10;;;;;;;45.42;12.70;;;;;;;6.72;98.11;103967.72;5064540;28;20028;-74
2022/01/18 10:08:38;;;;;;;41.10;12.95;;;;;;;6.76;97.95;103967.03;5068589;28;20013;-74
2022/01/18 10:11:14;;;;;;;44.95;13.68;;;;;;;6.86;97.70;103971.75;5067125;28;20032;-74
2022/01/18 10:13:41;;;;;;;39.30;11.90;;;;;;;6.91;97.02;103970.25;5050746;28;20060;-74
2022/01/18 10:16:14;;;;;;;40.78;12.07;;;;;;;6.95;96.83;103966.13;5069206;28;20028;-74
2022/01/18 10:18:55;;;;;;;42.88;13.18;;;;;;;6.98;96.84;103968.81;5067675;28;20024;-74
2022/01/18 10:21:34;;;;;;;41.53;12.07;;;;;;;6.97;96.33;103967.91;5059456;28;20469;-74
2022/01/18 10:24:25;;;;;;;43.25;13.18;;;;;;;7.07;96.81;103971.78;5058548;28;20033;-74
2022/01/18 10:26:53;;;;;;;40.30;12.95;;;;;;;7.08;96.69;103968.38;5067609;28;20089;-74
2022/01/18 10:29:26;;;;;;;44.42;13.52;;;;;;;7.06;96.37;103967.44;5064264;28;20032;-74
2022/01/18 10:34:24;;;;;;;41.60;13.20;;;;;;;7.18;96.53;103964.44;5055174;28;20036;-74
2022/01/18 10:36:55;;;;;;;43.45;13.30;;;;;;;7.23;96.08;103957.81;5060925;28;20032;-74
2022/01/18 10:39:32;;;;;;;41.50;12.27;;;;;;;7.34;96.25;103959.97;5067635;28;20033;-74
2022/01/18 10:42:02;;;;;;;41.80;12.73;;;;;;;7.44;95.52;103950.88;5066652;28;20078;-74
2022/01/18 10:44:31;;;;;;;42.67;12.68;;;;;;;7.60;96.02;103954.94;5066700;28;20484;-74
2022/01/18 10:46:58;;;;;;;42.03;12.95;;;;;;;7.74;95.27;103949.50;5059883;28;20100;-74
2022/01/18 10:49:43;;;;;;;44.25;13.52;;;;;;;7.89;95.58;103954.34;5033821;28;20016;-74
2022/01/18 10:52:22;;;;;;;39.65;12.93;;;;;;;7.98;93.52;103949.53;5048708;28;20529;-74
2022/01/18 10:54:57;;;;;;;43.90;12.18;;;;;;;8.03;93.08;103939.38;5070974;28;20036;-75
2022/01/18 10:57:38;;;;;;;41.88;12.48;;;;;;;8.09;92.51;103937.00;5063564;28;20025;-74
2022/01/18 11:00:17;;;;;;;42.25;12.57;;;;;;;8.06;92.56;103934.28;5063783;28;20600;-82
2022/01/18 11:02:46;;;;;;;45.38;12.85;;;;;;;8.03;92.53;103931.63;5070793;28;20058;-82
2022/01/18 11:05:14;;;;;;;47.38;14.30;;;;;;;7.96;92.34;103929.63;5058083;28;20549;-82
2022/01/18 11:07:40;;;;;;;45.88;13.23;;;;;;;7.93;93.18;103925.22;5069765;28;20103;-83
2022/01/18 11:10:08;;;;;;;41.97;13.38;;;;;;;7.83;92.39;103926.59;5048397;28;20042;-83
2022/01/18 11:12:48;;;;;;;39.15;12.63;;;;;;;7.80;93.93;103921.31;5046254;28;20033;-85
2022/01/18 11:15:20;;;;;;;46.28;12.70;;;;;;;7.77;92.60;103917.75;5068003;28;20523;-83
2022/01/18 11:17:51;;;;;;;41.40;12.73;;;;;;;7.80;92.95;103928.19;5049801;28;20029;-81
2022/01/18 11:20:19;;;;;;;50.47;13.60;;;;;;;7.83;92.99;103916.28;5071603;28;20032;-83
2022/01/18 11:22:45;;;;;;;43.00;12.32;;;;;;;7.89;92.09;103913.91;5063116;28;20040;-82
2022/01/18 11:25:10;;;;;;;47.28;13.57;;;;;;;7.98;92.04;103910.81;5046977;28;20398;-82
2022/01/18 11:27:36;;;;;;;44.45;13.40;;;;;;;8.08;92.35;103912.00;5040125;28;20471;-82
2022/01/18 11:30:07;;;;;;;46.28;14.63;;;;;;;8.18;92.03;103908.94;5051463;28;20025;-74
2022/01/18 11:32:33;;;;;;;42.80;14.48;;;;;;;8.23;90.98;103909.97;5064734;28;20024;-75
2022/01/18 11:35:08;;;;;;;44.28;13.85;;;;;;;8.35;91.00;103919.88;5057511;28;20044;-75
2022/01/18 11:37:41;;;;;;;47.25;13.98;;;;;;;8.50;92.02;103912.66;5068327;28;20090;-74
2022/01/18 11:40:11;;;;;;;47.40;13.10;;;;;;;8.60;90.62;103904.34;5070099;28;20036;-74
2022/01/18 11:42:49;;;;;;;39.92;13.05;;;;;;;8.67;90.11;103908.91;5069871;28;20040;-74
2022/01/18 11:45:24;;;;;;;45.00;13.63;;;;;;;8.71;90.74;103916.84;5049206;28;20028;-75
2022/01/18 11:47:58;;;;;;;43.25;12.93;;;;;;;8.71;88.39;103908.19;5069131;28;20099;-75
2022/01/18 11:50:29;;;;;;;48.42;13.00;;;;;;;8.60;87.35;103901.78;5067525;28;20033;-75
2022/01/18 11:53:25;;;;;;;36.67;12.43;;;;;;;8.70;90.41;103903.84;5058567;28;20363;-75
2022/01/18 11:55:59;;;;;;;40.08;11.85;;;;;;;8.63;88.44;103913.13;5055849;28;20133;-74
2022/01/18 11:58:26;;;;;;;39.25;12.88;;;;;;;8.58;89.51;103913.78;5070761;28;20065;-74
2022/01/18 12:01:00;;;;;;;41.75;12.35;;;;;;;8.59;89.81;103908.69;5060343;28;20021;-74
2022/01/18 12:03:48;;;;;;;38.83;12.25;;;;;;;8.50;89.55;103912.66;5040183;28;20543;-75
2022/01/18 12:06:14;;;;;;;44.75;13.38;;;;;;;8.46;90.13;103918.56;5047717;28;20466;-75
2022/01/18 12:08:42;;;;;;;40.38;12.73;;;;;;;8.49;89.56;103909.19;5052287;28;20049;-75
2022/01/18 12:11:28;;;;;;;37.42;12.15;;;;;;;8.61;87.56;103906.13;5060804;28;20086;-74
2022/01/18 12:13:59;;;;;;;41.53;11.45;;;;;;;8.72;86.13;103904.78;5067533;28;20479;-75
2022/01/18 12:16:28;;;;;;;37.00;11.55;;;;;;;8.70;87.49;103898.69;5065073;28;20032;-75
2022/01/18 12:19:00;;;;;;;40.75;11.15;;;;;;;8.51;85.76;103901.50;5067646;28;20025;-76